Weather at Jfk Medical Center Heliport

Public forecast

Using degrees Fahrenheit for public forecast. Weather courtesy of forecast.io.

Closest aviation weather report (METAR) to Jfk Medical Center Heliport

Closest report is Palm Beach International Airport, 5.0 nm (9.3 km) N. Retrieved 2020/10/01 16:53 UTC (1 hour ago):

KPBI 011653Z 12008KT 10SM SCT028CB SCT046 BKN060 30/24 A2994 RMK AO2 RAE09 SLP139 CB NE SW MOV SW CB DSNT N NE P0001 T03000244

Closest aviation forecast (TAF) to Jfk Medical Center Heliport

Closest forecast is Palm Beach International Airport, 5.0 nm (9.3 km) N. Retrieved 2020/10/01 12:50 UTC (5 hours ago):

TAF KPBI 011143Z 0112/0212 VRB05KT P6SM FEW020 SCT050 BKN200 FM011600 03009KT P6SM VCTS SCT020CB BKN050 FM020000 05009KT 5SM SHRA VCTS SCT025CB BKN040